Time;durP1;ratioP1;P1;durP2;ratioP2;P2;SDS_P1;SDS_P2;PMS_P1;PMS_P2;Temp;Humidity;BMP_temperature;BMP_pressure;BME280_temperature;BME280_humidity;BME280_pressure;Samples;Min_cycle;Max_cycle;Signal;HPM_P1;HPM_P2
2021/07/08 00:02:13;;;;;;;23.02;5.30;;;21.00;91.30;;;;;;5003180;28;20508;-60
2021/07/08 00:04:39;;;;;;;14.88;4.13;;;21.00;91.40;;;;;;5019851;28;20099;-59
2021/07/08 00:07:05;;;;;;;27.42;5.78;;;21.00;91.40;;;;;;5019838;28;20024;-59
2021/07/08 00:09:30;;;;;;;13.75;3.95;;;21.00;91.40;;;;;;5019148;28;20010;-60
2021/07/08 00:11:56;;;;;;;23.55;4.07;;;21.00;91.40;;;;;;5018884;28;20017;-59
2021/07/08 00:14:21;;;;;;;21.73;3.92;;;20.90;91.40;;;;;;5019746;28;20330;-59
2021/07/08 00:16:47;;;;;;;18.80;3.83;;;20.90;91.40;;;;;;5018289;28;20029;-60
2021/07/08 00:19:12;;;;;;;16.20;3.63;;;20.90;91.50;;;;;;5019657;28;20057;-60
2021/07/08 00:21:39;;;;;;;12.70;3.63;;;20.90;91.50;;;;;;5021700;28;20076;-59
2021/07/08 00:24:06;;;;;;;16.40;3.03;;;20.90;91.60;;;;;;5023653;28;20022;-59
2021/07/08 00:26:32;;;;;;;10.82;3.03;;;20.90;91.60;;;;;;5039683;28;20142;-60
2021/07/08 00:28:57;;;;;;;18.25;3.30;;;20.90;91.70;;;;;;5022268;28;20557;-60
2021/07/08 00:31:23;;;;;;;10.32;3.00;;;20.90;91.80;;;;;;5025195;28;20112;-60
2021/07/08 00:33:48;;;;;;;12.80;3.20;;;20.90;91.80;;;;;;5023503;28;20028;-60
2021/07/08 00:36:14;;;;;;;14.90;3.28;;;20.80;91.80;;;;;;5014074;28;20038;-60
2021/07/08 00:38:39;;;;;;;11.27;3.33;;;20.80;92.10;;;;;;5025927;28;20082;-60
2021/07/08 00:41:05;;;;;;;12.77;3.67;;;20.80;91.90;;;;;;5022653;28;20095;-60
2021/07/08 00:43:31;;;;;;;10.50;3.08;;;20.80;91.90;;;;;;5023546;28;20386;-59
2021/07/08 00:45:57;;;;;;;15.45;3.38;;;20.70;91.80;;;;;;5024526;28;20033;-60
2021/07/08 00:48:23;;;;;;;11.32;3.53;;;20.80;91.90;;;;;;5023170;28;20026;-60
2021/07/08 00:50:49;;;;;;;11.68;3.58;;;20.70;91.80;;;;;;5021108;28;20418;-59
2021/07/08 00:53:15;;;;;;;11.25;3.92;;;20.70;91.90;;;;;;5022373;28;20087;-60
2021/07/08 00:55:42;;;;;;;7.65;3.28;;;20.80;91.90;;;;;;5022706;28;20559;-59
2021/07/08 00:58:09;;;;;;;11.65;3.70;;;20.80;91.90;;;;;;5022468;28;20060;-59
2021/07/08 01:00:35;;;;;;;7.55;3.85;;;20.80;91.80;;;;;;5023535;28;20037;-59
2021/07/08 01:03:01;;;;;;;9.70;3.15;;;20.80;91.90;;;;;;5024906;28;20034;-59
2021/07/08 01:05:31;;;;;;;12.93;3.15;;;20.70;91.90;;;;;;5025205;28;20080;-60
2021/07/08 01:07:56;;;;;;;14.35;3.72;;;20.70;91.90;;;;;;5006703;28;20532;-60
2021/07/08 01:10:22;;;;;;;11.73;3.13;;;20.70;92.00;;;;;;5023710;28;20371;-60
2021/07/08 01:12:48;;;;;;;6.80;3.05;;;20.70;92.00;;;;;;5013218;28;20026;-59
2021/07/08 01:15:14;;;;;;;8.80;3.20;;;20.70;92.00;;;;;;5021657;28;20029;-59
2021/07/08 01:17:39;;;;;;;8.68;3.15;;;20.70;92.00;;;;;;5024452;28;20263;-59
2021/07/08 01:20:06;;;;;;;8.98;3.22;;;20.70;92.00;;;;;;5007391;28;20025;-59
2021/07/08 01:22:31;;;;;;;6.82;3.42;;;20.70;92.00;;;;;;5021813;28;20519;-59
2021/07/08 01:24:57;;;;;;;7.07;2.97;;;20.60;92.00;;;;;;5022626;28;20073;-59
2021/07/08 01:27:22;;;;;;;9.73;2.83;;;20.60;92.00;;;;;;5006405;28;20047;-59
2021/07/08 01:29:48;;;;;;;5.53;2.60;;;20.60;92.00;;;;;;5023325;28;20032;-59
2021/07/08 01:32:13;;;;;;;9.25;3.17;;;20.60;92.00;;;;;;5022573;28;20113;-59
2021/07/08 01:34:39;;;;;;;8.80;2.78;;;20.60;92.00;;;;;;5005407;28;20035;-59
2021/07/08 01:37:04;;;;;;;11.15;2.70;;;20.60;92.00;;;;;;5023680;28;20088;-59
2021/07/08 01:39:30;;;;;;;12.30;3.15;;;20.60;92.00;;;;;;5023574;28;20112;-59
2021/07/08 01:41:55;;;;;;;7.43;3.50;;;20.60;92.10;;;;;;5007084;28;20080;-59
2021/07/08 01:44:21;;;;;;;8.93;3.95;;;20.60;92.10;;;;;;5023920;28;20452;-59
2021/07/08 01:46:46;;;;;;;9.60;4.60;;;20.60;92.10;;;;;;5020090;28;20029;-60
2021/07/08 01:49:12;;;;;;;12.07;3.53;;;20.60;92.10;;;;;;5016972;28;20052;-59
2021/07/08 01:51:38;;;;;;;7.10;3.38;;;20.60;92.40;;;;;;5021415;28;20148;-59
2021/07/08 01:54:04;;;;;;;9.88;3.42;;;20.60;92.10;;;;;;5023114;28;20112;-59
2021/07/08 01:56:30;;;;;;;9.65;3.78;;;20.60;92.10;;;;;;5024309;28;20511;-59
2021/07/08 01:58:56;;;;;;;11.88;3.70;;;20.60;92.10;;;;;;5022707;28;20029;-59
2021/07/08 02:01:22;;;;;;;6.78;3.22;;;20.50;92.10;;;;;;5019950;28;20028;-59
2021/07/08 02:03:47;;;;;;;7.22;3.65;;;20.60;92.20;;;;;;5023789;28;20048;-59
2021/07/08 02:06:13;;;;;;;8.02;3.45;;;20.50;92.20;;;;;;5022403;28;20025;-59
2021/07/08 02:08:39;;;;;;;8.00;3.30;;;20.50;92.30;;;;;;5022953;28;20025;-59
2021/07/08 02:11:05;;;;;;;5.22;2.95;;;20.50;92.30;;;;;;5022857;28;20041;-59
2021/07/08 02:13:32;;;;;;;5.43;3.38;;;20.50;92.30;;;;;;5023892;28;20017;-59
2021/07/08 02:15:57;;;;;;;11.70;3.22;;;20.50;92.30;;;;;;5021618;28;20038;-61
2021/07/08 02:18:24;;;;;;;6.93;3.60;;;20.50;92.40;;;;;;5023350;28;20032;-60
2021/07/08 02:20:49;;;;;;;7.75;4.10;;;20.50;92.50;;;;;;5023316;28;20108;-60
2021/07/08 02:23:15;;;;;;;9.32;4.22;;;20.50;92.40;;;;;;5014463;28;20183;-60
2021/07/08 02:25:40;;;;;;;8.82;4.72;;;20.50;92.50;;;;;;5023579;28;20567;-60
2021/07/08 02:28:06;;;;;;;7.50;3.92;;;20.40;92.50;;;;;;5022407;28;20124;-60
2021/07/08 02:30:31;;;;;;;7.50;4.40;;;20.40;92.50;;;;;;5021021;28;20649;-60
2021/07/08 02:32:57;;;;;;;4.30;3.50;;;20.40;92.50;;;;;;5023787;28;20037;-60
2021/07/08 02:35:23;;;;;;;8.00;4.35;;;20.40;92.60;;;;;;5019111;28;20034;-60
2021/07/08 02:37:49;;;;;;;5.60;3.80;;;20.40;92.50;;;;;;5023370;28;20041;-60
2021/07/08 02:40:20;;;;;;;9.00;4.55;;;20.40;92.60;;;;;;5021223;28;20030;-60
2021/07/08 02:42:52;;;;;;;8.90;3.88;;;20.40;92.50;;;;;;5017291;28;20033;-60
2021/07/08 02:45:19;;;;;;;7.28;4.32;;;20.30;92.50;;;;;;5019488;28;20017;-59
2021/07/08 02:47:44;;;;;;;6.10;4.22;;;20.30;92.50;;;;;;5021372;28;20040;-60
2021/07/08 02:50:10;;;;;;;8.05;4.40;;;20.40;92.50;;;;;;5020236;28;20033;-60
2021/07/08 02:52:36;;;;;;;4.60;3.92;;;20.40;92.40;;;;;;5021388;28;20022;-60
2021/07/08 02:55:02;;;;;;;5.22;3.92;;;20.40;92.40;;;;;;5013446;28;20274;-60
2021/07/08 02:57:27;;;;;;;5.22;4.13;;;20.40;92.40;;;;;;5022261;28;20045;-60
2021/07/08 02:59:53;;;;;;;6.55;4.53;;;20.40;92.50;;;;;;5022952;28;20846;-60
2021/07/08 03:02:19;;;;;;;5.10;4.13;;;20.40;92.50;;;;;;5023289;28;20116;-60
2021/07/08 03:04:44;;;;;;;6.78;4.20;;;20.30;92.50;;;;;;5023645;28;20132;-60
2021/07/08 03:07:10;;;;;;;8.27;4.63;;;20.30;92.50;;;;;;5020674;28;20025;-60
2021/07/08 03:09:35;;;;;;;6.22;4.25;;;20.30;92.50;;;;;;5021643;28;20033;-60
2021/07/08 03:12:01;;;;;;;5.07;4.10;;;20.30;92.60;;;;;;5020875;28;20045;-61
2021/07/08 03:14:27;;;;;;;6.72;4.50;;;20.30;92.60;;;;;;5016448;28;20026;-60
2021/07/08 03:16:52;;;;;;;5.25;4.10;;;20.30;92.60;;;;;;5017313;28;20129;-60
2021/07/08 03:19:18;;;;;;;6.40;4.22;;;20.30;92.70;;;;;;5019821;28;20040;-60
2021/07/08 03:21:43;;;;;;;4.72;3.67;;;20.20;92.60;;;;;;5019558;28;20625;-60
2021/07/08 03:24:09;;;;;;;5.50;3.92;;;20.30;92.70;;;;;;5022635;28;20473;-60
2021/07/08 03:26:35;;;;;;;4.35;3.55;;;20.20;92.70;;;;;;5012159;28;20128;-60
2021/07/08 03:29:01;;;;;;;5.47;3.72;;;20.20;92.70;;;;;;5018141;28;20067;-60
2021/07/08 03:31:27;;;;;;;7.40;3.72;;;20.20;92.70;;;;;;5015464;28;20091;-60
2021/07/08 03:33:52;;;;;;;12.20;4.03;;;20.20;92.70;;;;;;5020734;28;20042;-61
2021/07/08 03:36:18;;;;;;;11.27;4.28;;;20.20;92.70;;;;;;5018196;28;20477;-61
2021/07/08 03:38:43;;;;;;;9.27;3.95;;;20.20;92.70;;;;;;5023428;28;20041;-61
2021/07/08 03:41:09;;;;;;;8.18;4.07;;;20.20;92.80;;;;;;5022597;28;20374;-60
2021/07/08 03:43:34;;;;;;;9.00;3.67;;;20.20;92.70;;;;;;5023166;28;20288;-61
2021/07/08 03:46:00;;;;;;;7.88;3.60;;;20.20;92.70;;;;;;5020895;28;20046;-60
2021/07/08 03:48:25;;;;;;;6.75;4.25;;;20.20;92.70;;;;;;5019594;28;20026;-60
2021/07/08 03:50:51;;;;;;;5.70;3.50;;;20.20;92.70;;;;;;5022981;28;20037;-60
2021/07/08 03:53:16;;;;;;;8.35;4.20;;;20.20;92.70;;;;;;5023579;28;20030;-60
2021/07/08 03:55:42;;;;;;;7.60;4.05;;;20.20;92.80;;;;;;5024401;28;20041;-60
2021/07/08 03:58:07;;;;;;;5.57;4.15;;;20.10;92.80;;;;;;5016624;28;20156;-60
2021/07/08 04:00:36;;;;;;;8.02;3.92;;;20.10;92.80;;;;;;5022598;28;20044;-60
2021/07/08 04:03:04;;;;;;;10.88;4.53;;;20.10;92.90;;;;;;5024855;28;20029;-60
2021/07/08 04:05:30;;;;;;;7.40;4.50;;;20.10;92.90;;;;;;5008628;28;20033;-60
2021/07/08 04:07:55;;;;;;;9.20;4.50;;;20.10;92.90;;;;;;5026085;28;20019;-60
2021/07/08 04:10:21;;;;;;;5.47;4.28;;;20.10;93.00;;;;;;5025838;28;20790;-60
2021/07/08 04:12:46;;;;;;;5.88;4.68;;;20.10;93.00;;;;;;5007970;28;20065;-60
2021/07/08 04:15:12;;;;;;;6.53;3.90;;;20.10;93.10;;;;;;5025999;28;20271;-59
2021/07/08 04:17:38;;;;;;;7.05;4.55;;;20.00;93.10;;;;;;5009104;28;20040;-59
2021/07/08 04:20:06;;;;;;;4.97;4.25;;;20.00;93.10;;;;;;5024843;28;20381;-59
2021/07/08 04:22:31;;;;;;;7.30;4.32;;;20.00;93.10;;;;;;5024446;28;20052;-60
2021/07/08 04:24:57;;;;;;;5.28;4.05;;;20.00;93.20;;;;;;5024933;28;20041;-59
2021/07/08 04:27:22;;;;;;;6.00;3.75;;;20.00;93.20;;;;;;5021983;28;20045;-60
2021/07/08 04:29:48;;;;;;;6.85;3.40;;;19.90;93.20;;;;;;5026141;28;20038;-60
2021/07/08 04:32:13;;;;;;;7.13;4.00;;;19.90;93.20;;;;;;5026048;28;20033;-59
2021/07/08 04:34:40;;;;;;;3.72;3.40;;;19.90;93.20;;;;;;5026640;28;20033;-60
2021/07/08 04:37:06;;;;;;;4.95;3.97;;;19.90;93.20;;;;;;5024011;28;20032;-60
2021/07/08 04:39:31;;;;;;;6.28;3.85;;;19.90;93.20;;;;;;4996498;28;20037;-60
2021/07/08 04:41:57;;;;;;;6.47;3.80;;;19.90;93.20;;;;;;5026093;28;20380;-60
2021/07/08 04:44:22;;;;;;;4.57;3.67;;;19.90;93.20;;;;;;5026416;28;20514;-60
2021/07/08 04:46:48;;;;;;;6.47;4.18;;;19.90;93.20;;;;;;5018575;28;20029;-60
2021/07/08 04:49:13;;;;;;;5.38;4.00;;;19.90;93.20;;;;;;5021336;28;20032;-60
2021/07/08 04:51:39;;;;;;;6.80;4.18;;;19.90;93.30;;;;;;5021339;28;20040;-60
2021/07/08 04:54:05;;;;;;;7.40;3.55;;;19.90;93.30;;;;;;5023578;28;20350;-60
2021/07/08 04:56:30;;;;;;;9.57;4.55;;;19.90;93.30;;;;;;5004052;28;20539;-60
2021/07/08 04:58:56;;;;;;;6.80;4.53;;;19.90;93.30;;;;;;5023719;28;20033;-60
2021/07/08 05:01:21;;;;;;;5.75;4.00;;;19.90;93.30;;;;;;5020742;28;20065;-60
2021/07/08 05:03:47;;;;;;;5.47;4.20;;;19.90;93.20;;;;;;5021441;28;20060;-60
2021/07/08 05:06:12;;;;;;;8.52;4.20;;;20.00;93.20;;;;;;5019047;28;20076;-60
2021/07/08 05:08:40;;;;;;;7.85;3.92;;;19.90;93.20;;;;;;5022203;28;20178;-59
2021/07/08 05:11:06;;;;;;;4.47;3.67;;;19.90;93.20;;;;;;5010118;28;20053;-60
2021/07/08 05:13:31;;;;;;;5.35;3.83;;;19.90;93.20;;;;;;5025127;28;20112;-60
2021/07/08 05:15:57;;;;;;;5.88;3.67;;;19.90;93.40;;;;;;5023811;28;20044;-60
2021/07/08 05:18:22;;;;;;;8.68;3.80;;;19.90;93.60;;;;;;5023043;28;20494;-59
2021/07/08 05:20:49;;;;;;;7.47;3.53;;;19.90;93.50;;;;;;5025084;28;20103;-61
2021/07/08 05:23:19;;;;;;;5.85;3.67;;;19.90;93.60;;;;;;5024530;28;20135;-60
2021/07/08 05:25:45;;;;;;;7.82;3.65;;;19.90;93.50;;;;;;5008501;28;20508;-60
2021/07/08 05:28:11;;;;;;;5.45;3.55;;;19.90;93.80;;;;;;5024635;28;20109;-60
2021/07/08 05:30:38;;;;;;;4.75;3.42;;;19.80;93.50;;;;;;5021549;28;20030;-59
2021/07/08 05:33:03;;;;;;;5.07;3.67;;;19.90;93.50;;;;;;5026030;28;20029;-60
2021/07/08 05:35:29;;;;;;;5.78;3.65;;;19.80;93.50;;;;;;5025243;28;20112;-59
2021/07/08 05:37:54;;;;;;;5.07;3.17;;;19.80;93.60;;;;;;5025260;28;20037;-60
2021/07/08 05:40:20;;;;;;;4.47;3.33;;;19.90;93.70;;;;;;5024007;28;20075;-59
2021/07/08 05:42:45;;;;;;;7.47;3.80;;;19.90;93.70;;;;;;5022918;28;20036;-60
2021/07/08 05:45:11;;;;;;;4.28;3.80;;;19.80;93.60;;;;;;5020065;28;20427;-59
2021/07/08 05:47:36;;;;;;;5.63;3.20;;;19.70;93.80;;;;;;5019443;28;20060;-60
2021/07/08 05:50:03;;;;;;;6.00;4.00;;;19.90;94.00;;;;;;5024183;28;21215;-60
2021/07/08 05:52:28;;;;;;;9.63;4.07;;;19.80;94.00;;;;;;5026202;28;20301;-59
2021/07/08 05:54:54;;;;;;;10.48;4.00;;;19.90;94.10;;;;;;5022775;28;20112;-60
2021/07/08 05:57:20;;;;;;;5.03;3.60;;;19.80;94.20;;;;;;5019732;28;20605;-60
2021/07/08 05:59:45;;;;;;;9.75;3.53;;;19.90;94.30;;;;;;5025304;28;20030;-60
2021/07/08 06:02:11;;;;;;;4.00;3.35;;;19.90;94.30;;;;;;5023899;28;20026;-60
2021/07/08 06:04:36;;;;;;;5.25;3.95;;;19.90;94.20;;;;;;5021807;28;20038;-60
2021/07/08 06:07:02;;;;;;;6.13;3.83;;;19.90;94.20;;;;;;5022299;28;20041;-60
2021/07/08 06:09:27;;;;;;;12.52;3.60;;;19.90;94.30;;;;;;5021940;28;20033;-60
2021/07/08 06:11:53;;;;;;;5.88;3.75;;;19.90;94.30;;;;;;5003942;28;20036;-60
2021/07/08 06:14:19;;;;;;;6.72;3.80;;;19.90;94.40;;;;;;5012774;28;20034;-60
2021/07/08 06:16:44;;;;;;;6.20;3.40;;;20.10;94.50;;;;;;5022018;28;20629;-60
2021/07/08 06:19:10;;;;;;;10.02;3.80;;;19.90;94.40;;;;;;5020595;28;20025;-60
2021/07/08 06:21:35;;;;;;;5.13;3.53;;;19.90;94.40;;;;;;5021879;28;20045;-59
2021/07/08 06:24:01;;;;;;;10.93;3.90;;;19.90;94.50;;;;;;5020850;28;20041;-60
2021/07/08 06:26:26;;;;;;;8.05;3.75;;;19.90;94.70;;;;;;5020864;28;20057;-60
2021/07/08 06:28:52;;;;;;;18.65;4.05;;;19.90;94.80;;;;;;5020583;28;20546;-60
2021/07/08 06:31:17;;;;;;;10.02;3.83;;;19.90;94.80;;;;;;5022355;28;20113;-60
2021/07/08 06:33:44;;;;;;;10.23;3.80;;;19.90;94.80;;;;;;5021758;28;20388;-60
2021/07/08 06:36:10;;;;;;;54.88;7.93;;;19.90;94.80;;;;;;5018471;28;20041;-60
2021/07/08 06:38:35;;;;;;;38.33;5.90;;;20.00;94.80;;;;;;5022365;28;20080;-60
2021/07/08 06:41:01;;;;;;;17.05;4.75;;;20.00;94.80;;;;;;5019825;28;20036;-60
2021/07/08 06:43:26;;;;;;;63.25;8.65;;;20.00;94.80;;;;;;5020568;28;20067;-60
2021/07/08 06:45:52;;;;;;;55.97;6.78;;;20.00;95.00;;;;;;5020620;28;20112;-60
2021/07/08 06:48:17;;;;;;;323.85;29.08;;;20.00;94.90;;;;;;5019401;28;20049;-59
2021/07/08 06:50:43;;;;;;;62.95;9.57;;;20.10;94.90;;;;;;5021891;28;20031;-60
2021/07/08 06:53:09;;;;;;;29.85;5.10;;;20.10;94.90;;;;;;5020852;28;20048;-60
2021/07/08 06:55:36;;;;;;;42.47;7.07;;;20.10;94.90;;;;;;5021569;28;20044;-59
2021/07/08 06:58:01;;;;;;;28.00;6.03;;;20.10;95.00;;;;;;5019639;28;20104;-60
2021/07/08 07:00:28;;;;;;;35.70;6.45;;;20.10;95.30;;;;;;5015721;28;20041;-60
2021/07/08 07:02:55;;;;;;;64.30;9.00;;;20.10;95.10;;;;;;5020169;28;20493;-59
2021/07/08 07:05:21;;;;;;;38.78;6.22;;;20.10;95.10;;;;;;5020885;28;20120;-60
2021/07/08 07:07:47;;;;;;;36.13;6.47;;;20.10;95.20;;;;;;5013398;28;20048;-60
2021/07/08 07:10:13;;;;;;;38.20;6.38;;;20.10;95.30;;;;;;5021867;28;20030;-60
2021/07/08 07:12:45;;;;;;;39.83;5.75;;;20.10;95.50;;;;;;5018876;28;20032;-60
2021/07/08 07:15:13;;;;;;;35.60;6.07;;;20.00;95.60;;;;;;4998751;28;20068;-60
2021/07/08 07:17:39;;;;;;;28.55;6.35;;;20.10;95.60;;;;;;5017931;28;20036;-60
2021/07/08 07:20:05;;;;;;;22.83;5.53;;;20.10;95.50;;;;;;5019621;28;20030;-59
2021/07/08 07:22:31;;;;;;;18.33;4.82;;;20.00;95.40;;;;;;5013604;28;20068;-60
2021/07/08 07:24:56;;;;;;;29.30;5.50;;;20.10;95.80;;;;;;5017564;28;20362;-59
2021/07/08 07:27:22;;;;;;;33.22;5.30;;;20.10;95.60;;;;;;5020081;28;20052;-60
2021/07/08 07:29:47;;;;;;;25.13;5.13;;;20.00;95.50;;;;;;5020139;28;20033;-59
2021/07/08 07:32:13;;;;;;;29.13;4.43;;;20.10;95.40;;;;;;5011593;28;20038;-60
2021/07/08 07:34:38;;;;;;;14.20;3.78;;;20.00;95.40;;;;;;5020330;28;20037;-60
2021/07/08 07:37:04;;;;;;;37.22;5.20;;;20.10;95.20;;;;;;5022004;28;20057;-59
2021/07/08 07:39:30;;;;;;;21.10;4.18;;;20.10;95.30;;;;;;5019051;28;20068;-60
2021/07/08 07:41:55;;;;;;;18.95;3.70;;;20.10;95.20;;;;;;5012942;28;20053;-59
2021/07/08 07:44:21;;;;;;;13.73;3.20;;;20.10;95.30;;;;;;5008639;28;20048;-60
2021/07/08 07:46:46;;;;;;;11.80;3.42;;;20.00;95.30;;;;;;5018885;28;20034;-59
2021/07/08 07:49:13;;;;;;;11.38;3.38;;;20.00;95.70;;;;;;5022307;28;20535;-60
2021/07/08 07:51:39;;;;;;;20.85;3.90;;;20.00;95.90;;;;;;5018951;28;20058;-60
2021/07/08 07:54:04;;;;;;;14.88;3.83;;;20.00;96.00;;;;;;5018219;28;20060;-58
2021/07/08 07:56:30;;;;;;;8.20;3.00;;;20.00;96.30;;;;;;5019608;28;20509;-59
2021/07/08 07:58:55;;;;;;;11.45;3.95;;;19.90;96.30;;;;;;5019647;28;20029;-59
2021/07/08 08:01:21;;;;;;;8.18;3.05;;;19.90;96.30;;;;;;5016789;28;20034;-60
2021/07/08 08:03:49;;;;;;;14.10;4.05;;;19.90;96.20;;;;;;5018100;28;20026;-59
2021/07/08 08:08:58;;;;;;;10.27;3.13;;;19.90;96.30;;;;;;5011450;28;20052;-59
2021/07/08 08:11:24;;;;;;;11.35;3.50;;;19.90;96.40;;;;;;5016191;28;20021;-60
2021/07/08 08:13:50;;;;;;;15.25;3.30;;;19.90;96.50;;;;;;5021511;28;20986;-59
2021/07/08 08:16:15;;;;;;;9.27;2.60;;;19.90;96.60;;;;;;5015856;28;20086;-60
2021/07/08 08:18:41;;;;;;;19.40;3.78;;;19.90;96.50;;;;;;5020017;28;20042;-60
2021/07/08 08:21:06;;;;;;;17.35;6.20;;;19.90;96.40;;;;;;5016868;28;20041;-60
2021/07/08 08:23:32;;;;;;;9.13;3.00;;;19.90;96.50;;;;;;5019759;28;20098;-60
2021/07/08 08:26:00;;;;;;;7.80;2.35;;;19.90;96.10;;;;;;5018062;28;20036;-60
2021/07/08 08:28:25;;;;;;;9.13;2.80;;;20.00;96.00;;;;;;5004952;28;20657;-59
2021/07/08 08:30:51;;;;;;;8.77;2.70;;;20.00;95.80;;;;;;5017705;28;20044;-60
2021/07/08 08:33:17;;;;;;;7.35;2.33;;;20.00;95.60;;;;;;5001248;28;20104;-60
2021/07/08 08:35:43;;;;;;;9.82;3.20;;;20.00;95.50;;;;;;5014723;28;20044;-60
2021/07/08 08:38:08;;;;;;;11.70;2.90;;;20.00;95.50;;;;;;5018211;28;20042;-60
2021/07/08 08:40:34;;;;;;;9.63;3.03;;;20.00;95.90;;;;;;5012852;28;20312;-60
2021/07/08 08:42:59;;;;;;;10.40;3.10;;;20.00;95.70;;;;;;5014683;28;20109;-59
2021/07/08 08:45:25;;;;;;;13.10;3.00;;;20.00;95.60;;;;;;5024803;28;20740;-59
2021/07/08 08:48:10;;;;;;;5.30;2.40;;;20.00;95.70;;;;;;5020929;28;20064;-59
2021/07/08 08:50:41;;;;;;;6.78;2.58;;;20.00;96.00;;;;;;5000448;28;20483;-59
2021/07/08 08:53:07;;;;;;;9.13;3.20;;;19.90;96.10;;;;;;5024159;28;20022;-59
2021/07/08 08:55:36;;;;;;;10.25;3.45;;;19.90;96.40;;;;;;5006897;28;20088;-60
2021/07/08 08:58:03;;;;;;;11.20;3.00;;;19.90;96.90;;;;;;5021937;28;20554;-59
2021/07/08 09:00:30;;;;;;;6.93;3.05;;;19.90;96.80;;;;;;5021204;28;20059;-60
2021/07/08 09:02:59;;;;;;;6.97;2.70;;;19.90;96.80;;;;;;5025259;28;20017;-59
2021/07/08 09:05:24;;;;;;;8.95;3.20;;;19.90;96.70;;;;;;5004927;28;20030;-59
2021/07/08 09:07:50;;;;;;;7.78;2.50;;;19.80;96.70;;;;;;5037792;28;20033;-59
2021/07/08 09:10:16;;;;;;;7.28;2.53;;;19.90;96.90;;;;;;5023889;28;20048;-60
2021/07/08 09:12:42;;;;;;;7.22;2.80;;;19.90;97.00;;;;;;5022986;28;20018;-59
2021/07/08 09:15:14;;;;;;;8.77;2.63;;;19.80;97.20;;;;;;5018530;28;20056;-60
2021/07/08 09:17:40;;;;;;;8.77;3.15;;;19.80;97.40;;;;;;5019984;28;20089;-60
2021/07/08 09:20:08;;;;;;;48.53;5.05;;;19.80;97.50;;;;;;5023212;28;20034;-60
2021/07/08 09:22:33;;;;;;;38.95;5.15;;;19.80;97.50;;;;;;5024244;28;20053;-59
2021/07/08 09:24:59;;;;;;;43.28;4.90;;;19.90;97.70;;;;;;5024508;28;20665;-59
2021/07/08 09:27:28;;;;;;;25.70;3.70;;;19.90;97.80;;;;;;5016985;28;20065;-59
2021/07/08 09:29:54;;;;;;;45.45;6.97;;;19.90;97.80;;;;;;5020068;28;20825;-59
2021/07/08 09:32:22;;;;;;;37.22;4.95;;;19.90;97.70;;;;;;5017539;28;20029;-60
2021/07/08 09:34:57;;;;;;;24.77;4.53;;;19.80;97.70;;;;;;5021642;28;20029;-59
2021/07/08 09:37:29;;;;;;;33.03;4.15;;;19.90;97.60;;;;;;5023976;28;20029;-59
2021/07/08 09:39:55;;;;;;;42.03;4.65;;;19.90;97.80;;;;;;5018353;28;20091;-59
2021/07/08 09:42:37;;;;;;;41.92;4.47;;;19.90;97.80;;;;;;5017668;28;20033;-59
2021/07/08 09:45:10;;;;;;;728.67;76.88;;;20.00;97.90;;;;;;5019950;28;20067;-60
2021/07/08 09:47:37;;;;;;;90.07;8.27;;;20.00;97.70;;;;;;5010861;28;20021;-59
2021/07/08 09:50:09;;;;;;;40.17;6.35;;;20.00;97.80;;;;;;5018666;28;20029;-60
2021/07/08 09:52:34;;;;;;;93.72;9.98;;;20.00;97.80;;;;;;5020466;28;20479;-60
2021/07/08 09:57:40;;;;;;;31.75;4.57;;;20.00;97.30;;;;;;5005472;28;20033;-59
2021/07/08 10:00:18;;;;;;;30.30;4.95;;;20.10;97.50;;;;;;5018858;28;20405;-59
2021/07/08 10:02:44;;;;;;;55.65;8.05;;;20.10;97.30;;;;;;5018442;28;20693;-60
2021/07/08 10:05:10;;;;;;;41.28;5.82;;;20.10;97.20;;;;;;5019699;28;20048;-59
2021/07/08 10:07:35;;;;;;;49.03;5.25;;;20.10;97.40;;;;;;5018061;28;20052;-59
2021/07/08 10:10:01;;;;;;;40.45;5.35;;;20.10;97.70;;;;;;5022454;28;20088;-60
2021/07/08 10:12:26;;;;;;;41.55;5.68;;;20.10;97.60;;;;;;5002792;28;20049;-60
2021/07/08 10:14:52;;;;;;;153.75;11.75;;;20.20;97.60;;;;;;5019141;28;20025;-60
2021/07/08 10:17:19;;;;;;;73.55;7.63;;;20.10;97.80;;;;;;5018820;28;20703;-60
2021/07/08 10:19:45;;;;;;;63.78;6.53;;;20.20;97.60;;;;;;5015028;28;20107;-60
2021/07/08 10:22:11;;;;;;;127.28;10.73;;;20.20;97.50;;;;;;5020538;28;20497;-60
2021/07/08 10:24:36;;;;;;;82.57;9.40;;;20.10;97.50;;;;;;5012120;28;21002;-60
2021/07/08 10:27:02;;;;;;;41.60;5.57;;;20.20;97.40;;;;;;5021613;28;20064;-60
2021/07/08 10:29:28;;;;;;;57.33;5.35;;;20.10;97.20;;;;;;5005385;28;20068;-60
2021/07/08 10:31:53;;;;;;;50.58;5.65;;;20.10;97.30;;;;;;5010995;28;20038;-60
2021/07/08 10:34:20;;;;;;;60.92;6.18;;;20.10;97.20;;;;;;4991911;28;20044;-60
2021/07/08 10:36:49;;;;;;;41.60;5.45;;;20.20;97.00;;;;;;5021455;28;20045;-60
2021/07/08 10:39:18;;;;;;;56.30;6.53;;;20.20;96.90;;;;;;5010559;28;20239;-60
2021/07/08 10:41:49;;;;;;;47.90;6.13;;;20.20;97.10;;;;;;5018901;28;20025;-59
2021/07/08 10:44:33;;;;;;;72.30;7.32;;;20.20;97.10;;;;;;5007463;28;20443;-60
2021/07/08 10:46:59;;;;;;;57.00;6.35;;;20.20;97.20;;;;;;5017602;28;20037;-60
2021/07/08 10:49:34;;;;;;;49.15;6.40;;;20.20;97.20;;;;;;5005803;28;20072;-59
2021/07/08 10:52:00;;;;;;;46.08;5.55;;;20.30;97.00;;;;;;5002082;28;20029;-59
2021/07/08 10:54:26;;;;;;;66.80;6.88;;;20.30;96.90;;;;;;4998704;28;20083;-60
2021/07/08 10:56:52;;;;;;;58.17;7.85;;;20.30;96.70;;;;;;5012254;28;20087;-59
2021/07/08 10:59:18;;;;;;;38.60;5.65;;;20.30;96.80;;;;;;4992503;28;21515;-60
2021/07/08 11:01:45;;;;;;;41.33;5.82;;;20.30;96.60;;;;;;4994751;28;20035;-60
2021/07/08 11:04:12;;;;;;;36.47;5.28;;;20.30;96.70;;;;;;5010378;28;20045;-60
2021/07/08 11:06:41;;;;;;;59.53;6.15;;;20.30;96.80;;;;;;5015379;28;20041;-60
2021/07/08 11:09:17;;;;;;;44.60;6.32;;;20.30;96.60;;;;;;5018761;28;20021;-60
2021/07/08 11:11:46;;;;;;;27.80;4.60;;;20.30;96.50;;;;;;5005241;28;20042;-60
2021/07/08 11:14:16;;;;;;;28.45;4.10;;;20.30;96.30;;;;;;5015263;28;20128;-60
2021/07/08 11:16:53;;;;;;;31.55;5.15;;;20.30;96.00;;;;;;5012801;28;20029;-60
2021/07/08 11:19:22;;;;;;;20.52;3.78;;;20.30;95.80;;;;;;5003626;28;20850;-60
2021/07/08 11:22:10;;;;;;;40.05;4.60;;;20.30;95.70;;;;;;5019979;28;20182;-60
2021/07/08 11:24:38;;;;;;;21.05;4.05;;;20.30;95.40;;;;;;5019700;28;20717;-60
2021/07/08 11:27:09;;;;;;;23.63;3.78;;;20.30;95.30;;;;;;5018262;28;20063;-60
2021/07/08 11:29:46;;;;;;;32.72;4.80;;;20.30;95.30;;;;;;5020122;28;20041;-60
2021/07/08 11:32:30;;;;;;;37.97;4.45;;;20.30;95.20;;;;;;5017878;28;20030;-60
2021/07/08 11:35:02;;;;;;;31.67;3.65;;;20.30;95.20;;;;;;5014413;28;20637;-60
2021/07/08 11:37:44;;;;;;;22.80;3.95;;;20.30;95.20;;;;;;5016058;28;20167;-59
2021/07/08 11:40:17;;;;;;;25.77;4.25;;;20.30;95.00;;;;;;5017836;28;20087;-60
2021/07/08 11:42:46;;;;;;;26.60;3.33;;;20.30;94.90;;;;;;5020153;28;20017;-60
2021/07/08 11:45:22;;;;;;;22.20;3.60;;;20.30;94.70;;;;;;5011179;28;20034;-60
2021/07/08 11:47:51;;;;;;;33.92;4.00;;;20.40;94.70;;;;;;4998870;28;20417;-61
2021/07/08 11:50:28;;;;;;;37.03;4.25;;;20.40;94.50;;;;;;5016394;28;20053;-59
2021/07/08 11:53:16;;;;;;;47.47;5.22;;;20.40;94.40;;;;;;5004177;28;20020;-60
2021/07/08 11:55:46;;;;;;;39.58;4.15;;;20.50;94.30;;;;;;5021033;28;20029;-60
2021/07/08 11:58:13;;;;;;;23.83;3.83;;;20.50;94.10;;;;;;5018059;28;20045;-60
2021/07/08 12:00:40;;;;;;;33.53;4.53;;;20.50;94.00;;;;;;5016444;28;20603;-60
2021/07/08 12:03:31;;;;;;;33.83;4.30;;;20.60;94.10;;;;;;5018658;28;20159;-59
2021/07/08 12:06:03;;;;;;;26.83;4.22;;;20.70;94.00;;;;;;5020180;28;20418;-59
2021/07/08 12:08:32;;;;;;;34.58;4.43;;;20.70;93.90;;;;;;5022110;28;21421;-60
2021/07/08 12:11:23;;;;;;;29.33;3.63;;;20.70;93.50;;;;;;5020506;28;20063;-60
2021/07/08 12:13:57;;;;;;;33.10;4.00;;;20.80;93.50;;;;;;5020547;28;20036;-59
2021/07/08 12:16:32;;;;;;;49.22;4.15;;;20.80;93.20;;;;;;5018230;28;20440;-60
2021/07/08 12:19:06;;;;;;;34.47;4.65;;;20.90;93.10;;;;;;5016585;28;20018;-60
2021/07/08 12:21:38;;;;;;;36.70;4.57;;;20.90;92.90;;;;;;5022042;28;20056;-60
2021/07/08 12:24:05;;;;;;;36.05;4.15;;;21.00;92.70;;;;;;5014625;28;20125;-60
2021/07/08 12:26:39;;;;;;;49.67;5.70;;;21.00;92.70;;;;;;4988759;28;20045;-60
2021/07/08 12:29:24;;;;;;;36.92;5.35;;;21.00;92.60;;;;;;5021162;28;20531;-60
2021/07/08 12:32:10;;;;;;;57.72;7.25;;;21.10;92.50;;;;;;5004118;28;20030;-60
2021/07/08 12:34:47;;;;;;;47.97;5.35;;;21.10;92.50;;;;;;5019254;28;20041;-59
2021/07/08 12:37:30;;;;;;;50.45;5.53;;;21.20;92.30;;;;;;5021301;28;20565;-59
2021/07/08 12:39:59;;;;;;;42.33;5.63;;;21.30;92.00;;;;;;5019000;28;20900;-59
2021/07/08 12:42:26;;;;;;;53.38;5.78;;;21.30;91.80;;;;;;5018377;28;20037;-60
2021/07/08 12:44:54;;;;;;;45.65;4.97;;;21.30;91.60;;;;;;5016775;28;20087;-60
2021/07/08 12:47:20;;;;;;;63.30;6.63;;;21.50;91.50;;;;;;5017901;28;20022;-60